Time;durP1;ratioP1;P1;durP2;ratioP2;P2;SDS_P1;SDS_P2;PMS_P1;PMS_P2;Temp;Humidity;BMP_temperature;BMP_pressure;BME280_temperature;BME280_humidity;BME280_pressure;Samples;Min_cycle;Max_cycle;Signal;HPM_P1;HPM_P2
2022/12/26 00:01:22;;;;;;;;;3.67;3.00;;;;;13.63;76.86;100775.81;5015737;28;45426;-58
2022/12/26 00:03:47;;;;;;;;;3.67;3.00;;;;;13.62;76.88;100769.59;5016296;28;45402;-58
2022/12/26 00:06:20;;;;;;;;;3.67;3.67;;;;;13.58;76.68;100774.31;5019905;28;45390;-58
2022/12/26 00:08:46;;;;;;;;;1.67;1.00;;;;;13.56;76.79;100773.56;5019101;28;45477;-57
2022/12/26 00:11:13;;;;;;;;;7.00;4.33;;;;;13.53;77.19;100764.84;5001633;28;47593;-57
2022/12/26 00:13:39;;;;;;;;;2.00;2.00;;;;;13.54;77.29;100771.91;5019763;28;45232;-58
2022/12/26 00:16:11;;;;;;;;;4.33;3.00;;;;;13.46;77.55;100756.41;5019346;28;45355;-57
2022/12/26 00:18:37;;;;;;;;;4.00;3.00;;;;;13.52;77.81;100780.03;5019622;28;45386;-58
2022/12/26 00:21:03;;;;;;;;;3.67;3.00;;;;;13.55;77.81;100785.19;5019116;28;45426;-58
2022/12/26 00:23:31;;;;;;;;;5.00;2.67;;;;;13.55;78.44;100785.19;5019691;28;45400;-57
2022/12/26 00:26:03;;;;;;;;;3.00;3.00;;;;;13.45;78.33;100789.41;5020119;28;45251;-58
2022/12/26 00:28:28;;;;;;;;;8.33;3.67;;;;;13.47;78.93;100792.84;5020198;28;45221;-58
2022/12/26 00:30:53;;;;;;;;;3.00;3.00;;;;;13.49;78.23;100800.75;5018721;28;45358;-58
2022/12/26 00:33:19;;;;;;;;;3.00;3.00;;;;;13.48;79.00;100789.22;5019490;28;45374;-57
2022/12/26 00:35:44;;;;;;;;;7.00;3.00;;;;;13.49;78.67;100796.28;5019566;28;45356;-58
2022/12/26 00:38:09;;;;;;;;;4.00;4.00;;;;;13.50;78.62;100779.28;5019658;28;45213;-57
2022/12/26 00:40:35;;;;;;;;;4.67;4.00;;;;;13.48;79.15;100789.22;5018776;28;45992;-58
2022/12/26 00:43:00;;;;;;;;;10.00;3.00;;;;;13.50;78.57;100776.59;5018788;28;45182;-58
2022/12/26 00:45:25;;;;;;;;;5.00;3.33;;;;;13.39;79.07;100773.78;5019234;28;45251;-59
2022/12/26 00:47:51;;;;;;;;;4.00;4.00;;;;;13.41;78.95;100787.91;5019346;28;45296;-58
2022/12/26 00:50:16;;;;;;;;;7.00;4.00;;;;;13.41;78.98;100793.25;5018800;28;45597;-59
2022/12/26 00:52:41;;;;;;;;;7.33;4.33;;;;;13.48;78.82;100799.03;5019281;28;45281;-59
2022/12/26 00:55:07;;;;;;;;;7.00;5.00;;;;;13.42;78.76;100797.66;5018848;28;45324;-57
2022/12/26 00:57:33;;;;;;;;;9.00;3.67;;;;;13.44;78.88;100797.53;5019023;28;45463;-58
2022/12/26 00:59:58;;;;;;;;;4.67;3.00;;;;;13.40;78.69;100779.97;5001002;28;47241;-59
2022/12/26 01:02:39;;;;;;;;;4.00;4.00;;;;;13.44;78.35;100774.34;5000473;28;64668;-59
2022/12/26 01:05:06;;;;;;;;;6.33;3.00;;;;;13.46;78.93;100782.25;5019260;28;45789;-59
2022/12/26 01:07:33;;;;;;;;;2.33;1.00;;;;;13.45;78.68;100783.22;5019404;28;45331;-58
2022/12/26 01:09:59;;;;;;;;;6.00;3.67;;;;;13.45;78.68;100792.09;5018199;28;46314;-57
2022/12/26 01:12:26;;;;;;;;;3.33;3.33;;;;;13.43;78.57;100796.69;5013801;28;45482;-59
2022/12/26 01:14:53;;;;;;;;;4.00;2.67;;;;;13.36;78.58;100792.69;5017173;28;45391;-58
2022/12/26 01:17:19;;;;;;;;;4.00;3.33;;;;;13.41;78.06;100801.28;5017667;28;44854;-58
2022/12/26 01:19:44;;;;;;;;;8.33;3.00;;;;;13.40;78.97;100817.38;5017382;28;45177;-58
2022/12/26 01:22:10;;;;;;;;;4.00;2.33;;;;;13.36;78.49;100814.03;5018507;28;45252;-58
2022/12/26 01:24:35;;;;;;;;;5.33;4.00;;;;;13.36;78.19;100822.06;5018364;28;45213;-58
2022/12/26 01:27:00;;;;;;;;;3.67;3.67;;;;;13.35;78.05;100820.34;5018691;28;45224;-58
2022/12/26 01:29:26;;;;;;;;;3.00;3.00;;;;;13.31;78.19;100807.31;5017967;28;46352;-58
2022/12/26 01:31:51;;;;;;;;;5.33;4.00;;;;;13.33;78.29;100806.25;5016828;28;45374;-58
2022/12/26 01:34:17;;;;;;;;;3.67;3.33;;;;;13.32;78.39;100811.69;5018717;28;45316;-57
2022/12/26 01:36:42;;;;;;;;;6.67;3.00;;;;;13.29;78.67;100820.75;5018536;28;45225;-58
2022/12/26 01:39:07;;;;;;;;;4.00;2.33;;;;;13.29;78.37;100807.41;5018227;28;46379;-58
2022/12/26 01:41:33;;;;;;;;;3.00;1.67;;;;;13.28;78.14;100811.00;5018127;28;45535;-57
2022/12/26 01:44:04;;;;;;;;;5.00;2.33;;;;;13.26;78.32;100821.78;5016914;28;45993;-58
2022/12/26 01:46:42;;;;;;;;;3.00;3.00;;;;;13.24;78.65;100841.53;5018426;28;45220;-57
2022/12/26 01:49:17;;;;;;;;;3.67;2.00;;;;;13.21;78.66;100845.25;5017741;28;45452;-58
2022/12/26 01:51:48;;;;;;;;;5.67;3.00;;;;;13.19;78.20;100857.00;5018045;28;45241;-58
2022/12/26 01:54:14;;;;;;;;;2.33;1.00;;;;;13.21;78.23;100885.31;5016901;28;45322;-58
2022/12/26 01:56:42;;;;;;;;;2.33;2.33;;;;;13.22;78.63;100884.38;5016943;28;45388;-58
2022/12/26 01:59:17;;;;;;;;;5.33;2.00;;;;;13.21;78.75;100884.47;5017902;28;47160;-58
2022/12/26 02:01:46;;;;;;;;;3.67;2.00;;;;;13.12;78.31;100872.50;5017993;28;45443;-58
2022/12/26 02:07:02;;;;;;;;;2.00;2.00;;;;;13.17;78.86;100880.25;5017887;28;45305;-58
2022/12/26 02:09:28;;;;;;;;;1.00;0.67;;;;;13.17;78.48;100869.56;5016990;28;45417;-58
2022/12/26 02:12:01;;;;;;;;;2.00;1.00;;;;;13.19;78.96;100873.03;5017370;28;45369;-58
2022/12/26 02:14:27;;;;;;;;;6.33;1.00;;;;;13.16;78.87;100873.19;5017538;28;45368;-57
2022/12/26 02:16:52;;;;;;;;;6.67;2.33;;;;;13.11;79.05;100881.47;5017554;28;45709;-58
2022/12/26 02:19:50;;;;;;;;;3.33;2.00;;;;;13.07;79.25;100877.28;4999685;28;46026;-58
2022/12/26 02:22:41;;;;;;;;;4.00;1.00;;;;;13.08;79.50;100860.31;5017195;28;45431;-58
2022/12/26 02:25:20;;;;;;;;;2.00;2.00;;;;;13.10;78.73;100850.38;5017991;28;45253;-63
2022/12/26 02:28:27;;;;;;;;;2.33;1.33;;;;;13.06;79.00;100850.69;5018991;28;45459;-58
2022/12/26 02:31:07;;;;;;;;;1.00;0.00;;;;;13.05;78.68;100862.31;4946685;28;46284;-58
2022/12/26 02:33:54;;;;;;;;;3.00;1.00;;;;;13.05;79.20;100875.66;5017833;28;45320;-57
2022/12/26 02:36:37;;;;;;;;;3.00;1.33;;;;;13.06;78.95;100872.03;5017957;28;45347;-57
2022/12/26 02:39:27;;;;;;;;;2.00;2.00;;;;;13.06;79.19;100877.38;5017603;28;45202;-57
2022/12/26 02:42:00;;;;;;;;;2.33;2.33;;;;;13.09;78.85;100871.84;5017281;28;45426;-58
2022/12/26 02:48:13;;;;;;;;;2.00;1.00;;;;;13.08;78.89;100854.09;5017132;28;45393;-57
2022/12/26 03:14:59;;;;;;;;;1.33;1.00;;;;;13.04;78.75;100852.59;5036905;28;45497;-57
2022/12/26 03:17:39;;;;;;;;;1.00;1.00;;;;;13.06;78.35;100851.53;5036564;28;46083;-58
2022/12/26 03:20:10;;;;;;;;;1.00;1.00;;;;;13.04;78.61;100848.09;5036608;28;45339;-56
2022/12/26 03:22:47;;;;;;;;;3.00;1.00;;;;;13.03;78.37;100838.38;5035825;28;45366;-58
2022/12/26 03:28:10;;;;;;;;;0.00;0.00;;;;;13.00;78.06;100852.75;5036589;28;45450;-59
2022/12/26 03:30:47;;;;;;;;;0.00;0.00;;;;;13.02;78.33;100857.13;5036195;28;45432;-58
2022/12/26 03:36:17;;;;;;;;;2.00;1.00;;;;;12.99;77.65;100859.06;5036341;28;45347;-59
2022/12/26 03:39:07;;;;;;;;;0.00;0.00;;;;;12.94;78.17;100846.97;5001243;28;45537;-58
2022/12/26 04:20:26;;;;;;;;;0.67;0.00;;;;;12.82;78.23;100885.94;5015741;28;45276;-59
2022/12/26 04:45:53;;;;;;;;;0.00;0.00;;;;;12.75;78.25;100908.59;5015672;28;45236;-59
2022/12/26 04:51:03;;;;;;;;;2.00;0.00;;;;;12.75;78.32;100916.59;5017577;28;45268;-59
2022/12/26 04:53:28;;;;;;;;;0.67;0.33;;;;;12.78;78.04;100921.78;5019171;28;45497;-58
2022/12/26 04:55:54;;;;;;;;;1.33;0.00;;;;;12.75;78.11;100932.59;5019529;28;45418;-58
2022/12/26 04:58:22;;;;;;;;;3.00;0.00;;;;;12.79;78.22;100944.84;5018135;28;63895;-58
2022/12/26 05:00:48;;;;;;;;;0.00;0.00;;;;;12.70;77.70;100934.69;5018596;28;45375;-58
2022/12/26 05:11:29;;;;;;;;;0.00;0.00;;;;;12.64;78.40;100935.09;5027588;28;45347;-62
2022/12/26 05:13:57;;;;;;;;;1.00;1.00;;;;;12.70;78.83;100940.03;5039030;28;45182;-64
2022/12/26 05:30:15;;;;;;;;;0.00;0.00;;;;;12.56;78.99;100942.66;5038024;28;45226;-57
2022/12/26 05:35:25;;;;;;;;;1.33;0.33;;;;;12.44;78.84;100948.72;5038321;28;45304;-58
2022/12/26 05:37:50;;;;;;;;;1.00;1.00;;;;;12.43;79.14;100947.84;5038259;28;45889;-59
2022/12/26 05:40:16;;;;;;;;;2.00;1.00;;;;;12.44;78.74;100943.38;5020074;28;46383;-57
2022/12/26 05:42:41;;;;;;;;;0.67;0.67;;;;;12.39;78.94;100951.66;5038112;28;45325;-58
2022/12/26 05:45:07;;;;;;;;;1.00;1.00;;;;;12.42;79.00;100963.97;5038078;28;45249;-60
2022/12/26 05:47:32;;;;;;;;;1.00;1.00;;;;;12.44;79.04;100967.38;5038155;28;45452;-59
2022/12/26 05:49:57;;;;;;;;;1.00;1.00;;;;;12.42;78.46;100972.81;5019779;28;47935;-58
2022/12/26 05:52:23;;;;;;;;;1.00;1.00;;;;;12.45;78.37;100987.78;5019208;28;57909;-59
2022/12/26 05:54:48;;;;;;;;;0.33;0.33;;;;;12.39;78.00;100979.19;5038064;28;45368;-58
2022/12/26 05:57:13;;;;;;;;;0.67;0.67;;;;;12.47;78.39;100997.41;5038178;28;45544;-58
2022/12/26 05:59:39;;;;;;;;;1.00;1.00;;;;;12.40;78.00;100986.25;5037616;28;46683;-58
2022/12/26 06:02:04;;;;;;;;;0.00;0.00;;;;;12.47;77.89;101001.88;5037121;28;45549;-58
2022/12/26 06:04:29;;;;;;;;;3.00;0.33;;;;;12.39;77.49;100989.00;5020456;28;45467;-59
2022/12/26 06:06:55;;;;;;;;;0.00;0.00;;;;;12.31;77.62;100978.75;5037891;28;45380;-59
2022/12/26 06:09:23;;;;;;;;;0.33;0.33;;;;;12.42;77.44;100987.97;5019789;28;45970;-59
2022/12/26 06:11:48;;;;;;;;;2.00;2.00;;;;;12.44;77.48;100983.41;5025496;28;45358;-58
2022/12/26 06:14:15;;;;;;;;;0.33;0.33;;;;;12.44;77.21;100986.06;4999591;28;45199;-59
2022/12/26 06:16:40;;;;;;;;;1.00;1.00;;;;;12.38;76.89;100966.81;5017539;28;45562;-57
2022/12/26 06:19:06;;;;;;;;;1.33;0.33;;;;;12.44;77.14;100975.38;5017301;28;46001;-58
2022/12/26 06:21:31;;;;;;;;;0.00;0.00;;;;;12.39;76.66;100973.00;5017682;28;45371;-58
2022/12/26 06:23:57;;;;;;;;;1.67;1.00;;;;;12.34;76.59;100972.38;5017378;28;45323;-58
2022/12/26 06:26:22;;;;;;;;;0.67;0.67;;;;;12.32;76.39;100956.47;5017533;28;45588;-58
2022/12/26 06:28:47;;;;;;;;;0.00;0.00;;;;;12.27;76.15;100961.22;5016105;28;45214;-58
2022/12/26 06:31:16;;;;;;;;;1.00;0.00;;;;;12.23;76.18;100945.47;5017315;28;45237;-58
2022/12/26 06:33:42;;;;;;;;;5.00;0.33;;;;;12.21;76.65;100961.56;4998651;28;45413;-59
2022/12/26 06:36:13;;;;;;;;;2.00;0.67;;;;;12.21;76.86;100964.22;5017674;28;45331;-58
2022/12/26 06:38:39;;;;;;;;;0.00;0.00;;;;;12.21;76.86;100974.88;5017448;28;45900;-59
2022/12/26 06:41:06;;;;;;;;;0.67;0.67;;;;;12.18;76.60;101003.53;5017147;28;45422;-58
2022/12/26 06:43:32;;;;;;;;;1.00;1.00;;;;;12.10;76.97;100987.97;5017431;28;45309;-59
2022/12/26 06:46:03;;;;;;;;;1.00;1.00;;;;;12.15;76.60;101001.06;5017402;28;45652;-58
2022/12/26 06:48:28;;;;;;;;;1.00;1.00;;;;;12.14;76.75;101004.66;5017031;28;45599;-59
2022/12/26 06:50:55;;;;;;;;;0.00;0.00;;;;;12.11;76.92;101011.03;5016848;28;45459;-59
2022/12/26 06:53:22;;;;;;;;;0.00;0.00;;;;;12.13;76.79;101016.28;5017220;28;45341;-58
2022/12/26 06:55:48;;;;;;;;;0.00;0.00;;;;;12.08;76.81;101017.38;5016881;28;45602;-58
2022/12/26 06:58:14;;;;;;;;;0.00;0.00;;;;;12.08;76.96;101016.53;5016799;28;46188;-58
2022/12/26 07:00:39;;;;;;;;;3.00;0.00;;;;;12.08;76.91;101017.38;5016188;28;45365;-59
2022/12/26 07:03:05;;;;;;;;;0.67;0.00;;;;;12.02;76.97;101023.06;5016615;28;45564;-59
2022/12/26 07:05:30;;;;;;;;;1.00;1.00;;;;;12.02;77.06;101022.19;4999744;28;45191;-62
2022/12/26 07:07:56;;;;;;;;;0.67;0.67;;;;;12.05;77.20;101027.34;5016526;28;45703;-58
2022/12/26 07:10:21;;;;;;;;;0.00;0.00;;;;;12.02;77.10;101017.72;5015692;28;45198;-59
2022/12/26 07:12:47;;;;;;;;;1.00;1.00;;;;;12.12;76.81;101039.41;5035884;28;57393;-58
2022/12/26 07:15:13;;;;;;;;;0.67;0.67;;;;;12.12;76.76;101039.41;5032063;28;45487;-58
2022/12/26 07:17:39;;;;;;;;;0.00;0.00;;;;;12.14;77.11;101042.84;5016521;28;47232;-58
2022/12/26 07:20:06;;;;;;;;;2.00;0.67;;;;;12.09;76.59;101034.22;4999319;28;45341;-59
2022/12/26 07:22:31;;;;;;;;;0.00;0.00;;;;;12.19;76.73;101062.13;4999299;28;45515;-59
2022/12/26 07:24:57;;;;;;;;;2.67;0.00;;;;;12.18;76.91;101048.88;5016635;28;45328;-58
2022/12/26 07:27:22;;;;;;;;;1.00;1.00;;;;;12.14;76.27;101061.53;5015751;28;46228;-62
2022/12/26 07:29:47;;;;;;;;;1.00;1.00;;;;;12.20;76.99;101066.50;5016625;28;45380;-59
2022/12/26 07:32:13;;;;;;;;;1.67;0.00;;;;;12.15;76.57;101060.56;5015983;28;58725;-58
2022/12/26 07:34:40;;;;;;;;;1.00;1.00;;;;;12.08;76.72;101048.50;4998771;28;45504;-59
2022/12/26 07:37:05;;;;;;;;;3.00;1.33;;;;;12.05;77.19;101057.53;5016612;28;46562;-58
2022/12/26 07:39:31;;;;;;;;;2.00;1.00;;;;;12.00;77.10;101067.59;5016091;28;45433;-59
2022/12/26 07:41:56;;;;;;;;;0.00;0.00;;;;;11.99;76.63;101059.69;5016388;28;45201;-58
2022/12/26 07:44:22;;;;;;;;;2.00;2.00;;;;;11.95;77.25;101058.97;5015484;28;45581;-57
2022/12/26 07:46:48;;;;;;;;;1.00;1.00;;;;;11.99;77.36;101065.03;5016119;28;46582;-58
2022/12/26 07:49:13;;;;;;;;;4.00;2.67;;;;;11.98;77.37;101076.59;5015899;28;45340;-57
2022/12/26 07:51:40;;;;;;;;;3.00;1.67;;;;;11.95;77.51;101074.13;4998436;28;45593;-58
2022/12/26 07:54:06;;;;;;;;;1.00;1.00;;;;;11.93;77.45;101086.66;5016547;28;45607;-58
2022/12/26 07:56:33;;;;;;;;;1.00;1.00;;;;;11.94;77.42;101083.06;5015749;28;46460;-58
2022/12/26 07:58:58;;;;;;;;;3.00;1.00;;;;;11.92;77.59;101076.94;5016048;28;45377;-58
2022/12/26 08:01:24;;;;;;;;;2.33;1.00;;;;;11.96;77.48;101082.03;5015937;28;45313;-57
2022/12/26 08:03:50;;;;;;;;;1.00;1.00;;;;;12.03;77.37;101103.91;5016443;28;45273;-58
2022/12/26 08:06:16;;;;;;;;;3.00;2.00;;;;;12.02;77.08;101097.72;5015902;28;46618;-58
2022/12/26 08:08:42;;;;;;;;;1.33;1.33;;;;;12.03;77.48;101088.75;5015698;28;45437;-57
2022/12/26 08:11:10;;;;;;;;;2.00;1.00;;;;;12.04;77.82;101093.16;5016145;28;45333;-58
2022/12/26 08:13:35;;;;;;;;;3.67;2.00;;;;;12.08;77.05;101091.16;5016391;28;45429;-59
2022/12/26 08:16:05;;;;;;;;;1.00;1.00;;;;;12.15;77.00;101105.91;5015439;28;45536;-58
2022/12/26 08:18:31;;;;;;;;;4.00;2.67;;;;;12.18;76.85;101102.19;5015961;28;45380;-62
2022/12/26 08:20:57;;;;;;;;;2.00;2.00;;;;;12.17;76.99;101112.00;5015827;28;45403;-59
2022/12/26 08:23:22;;;;;;;;;3.00;2.00;;;;;12.17;76.69;101117.34;5015635;28;45458;-59
2022/12/26 08:25:48;;;;;;;;;1.33;1.33;;;;;12.17;76.72;101109.34;4999443;28;47223;-58
2022/12/26 08:28:13;;;;;;;;;18.67;16.67;;;;;12.17;76.96;101112.00;5019080;28;45248;-59
2022/12/26 08:30:40;;;;;;;;;2.00;1.00;;;;;12.20;77.25;101117.16;5001766;28;45364;-59
2022/12/26 08:33:06;;;;;;;;;1.00;1.00;;;;;12.23;77.22;101114.31;5019538;28;45510;-59
2022/12/26 08:35:36;;;;;;;;;2.00;2.00;;;;;12.25;76.85;101131.13;5019137;28;45402;-59
2022/12/26 08:38:02;;;;;;;;;1.67;1.67;;;;;12.26;75.91;101130.19;5018974;28;45229;-59
2022/12/26 08:40:27;;;;;;;;;2.67;2.67;;;;;12.26;76.30;101116.84;5018904;28;45335;-58
2022/12/26 08:42:53;;;;;;;;;1.00;1.00;;;;;12.30;76.05;101136.19;5019225;28;45387;-58
2022/12/26 08:45:18;;;;;;;;;3.00;1.33;;;;;12.28;76.15;101146.09;5018814;28;46194;-58
2022/12/26 08:47:44;;;;;;;;;1.67;1.00;;;;;12.29;76.05;101145.16;5018748;28;45395;-58
2022/12/26 08:50:10;;;;;;;;;3.00;1.00;;;;;12.27;76.14;101128.38;5018127;28;45468;-59
2022/12/26 08:52:35;;;;;;;;;1.00;1.00;;;;;12.33;75.70;101146.69;5019099;28;45440;-59
2022/12/26 08:55:01;;;;;;;;;0.00;0.00;;;;;12.34;75.70;101159.09;5000383;28;46408;-58
2022/12/26 08:57:27;;;;;;;;;1.00;1.00;;;;;12.34;75.25;101154.59;5017935;28;45451;-59
2022/12/26 08:59:52;;;;;;;;;1.00;1.00;;;;;12.32;75.28;101156.50;5018870;28;45411;-58
2022/12/26 09:02:18;;;;;;;;;3.00;0.00;;;;;12.39;75.49;101165.03;5019044;28;45576;-58
2022/12/26 09:04:43;;;;;;;;;1.00;1.00;;;;;12.37;75.75;101151.81;5017263;28;45457;-59
2022/12/26 09:07:08;;;;;;;;;1.00;1.00;;;;;12.26;75.06;101148.84;5016938;28;45424;-59
2022/12/26 09:09:34;;;;;;;;;2.00;0.33;;;;;12.35;75.44;101172.34;5018704;28;45415;-59
2022/12/26 09:11:59;;;;;;;;;1.00;1.00;;;;;12.37;75.37;101175.81;5032026;28;45300;-63
2022/12/26 09:14:25;;;;;;;;;2.00;1.00;;;;;12.43;75.19;101187.06;5038567;28;46587;-60
2022/12/26 09:16:53;;;;;;;;;2.33;1.00;;;;;12.42;75.03;101180.03;5020269;28;45191;-58
2022/12/26 09:19:19;;;;;;;;;1.00;1.00;;;;;12.47;75.21;101188.63;5038501;28;45433;-58
2022/12/26 09:21:45;;;;;;;;;2.33;1.67;;;;;12.48;74.89;101195.69;5038434;28;45654;-59
2022/12/26 09:24:14;;;;;;;;;1.33;1.33;;;;;12.48;75.13;101190.34;5038430;28;46209;-58
2022/12/26 09:26:40;;;;;;;;;4.33;1.33;;;;;12.46;75.10;101203.75;5038393;28;45457;-60
2022/12/26 09:29:08;;;;;;;;;1.00;1.00;;;;;12.49;75.11;101203.59;5038019;28;45229;-65
2022/12/26 09:31:34;;;;;;;;;1.00;1.00;;;;;12.47;74.82;101199.28;5038629;28;45246;-59
2022/12/26 09:34:02;;;;;;;;;1.33;1.33;;;;;12.56;74.75;101198.81;5037679;28;46280;-58
2022/12/26 09:36:29;;;;;;;;;1.00;1.00;;;;;12.60;74.99;101195.88;5037176;28;45422;-59
2022/12/26 09:38:56;;;;;;;;;2.00;2.00;;;;;12.65;74.97;101192.97;5038076;28;45241;-59
2022/12/26 09:41:50;;;;;;;;;2.00;2.00;;;;;12.65;74.49;101204.50;5038091;28;45341;-59
2022/12/26 09:44:44;;;;;;;;;2.67;1.00;;;;;12.65;73.98;101203.66;5037699;28;45208;-59
2022/12/26 09:47:33;;;;;;;;;2.00;2.00;;;;;12.62;74.32;101193.97;5038190;28;45286;-58
2022/12/26 09:50:08;;;;;;;;;1.33;1.00;;;;;12.72;74.40;101210.34;5038134;28;45209;-58
2022/12/26 09:52:43;;;;;;;;;0.33;0.33;;;;;12.62;74.14;101203.78;5037797;28;45448;-59
2022/12/26 09:55:36;;;;;;;;;2.00;1.00;;;;;12.73;74.53;101221.88;5037777;28;46524;-59
2022/12/26 09:58:20;;;;;;;;;0.00;0.00;;;;;12.78;74.09;101228.72;5036932;28;45392;-58
2022/12/26 10:00:52;;;;;;;;;3.00;2.00;;;;;12.77;74.28;101218.97;5037999;28;45321;-58
2022/12/26 10:03:18;;;;;;;;;0.67;0.67;;;;;12.83;74.19;101229.31;5019556;28;45349;-59
2022/12/26 10:06:08;;;;;;;;;2.00;2.00;;;;;12.81;74.17;101231.22;5037878;28;45414;-58
2022/12/26 10:08:47;;;;;;;;;1.33;1.33;;;;;12.80;73.40;101217.94;5019596;28;45349;-59
2022/12/26 10:11:32;;;;;;;;;1.00;1.00;;;;;12.83;73.84;101229.31;5030857;28;45427;-57
2022/12/26 10:14:07;;;;;;;;;3.00;1.00;;;;;12.83;73.61;101229.31;5017800;28;45429;-57
2022/12/26 10:16:55;;;;;;;;;3.33;1.00;;;;;12.89;73.96;101233.44;5017200;28;46242;-59
2022/12/26 10:19:42;;;;;;;;;3.00;0.00;;;;;12.94;73.70;101232.25;5017608;28;45293;-58
2022/12/26 10:22:31;;;;;;;;;0.00;0.00;;;;;12.93;73.32;101230.53;5017524;28;45468;-58
2022/12/26 10:25:01;;;;;;;;;0.33;0.33;;;;;12.94;73.44;101236.72;5017650;28;45464;-59
2022/12/26 10:27:36;;;;;;;;;6.67;2.00;;;;;12.94;73.15;101234.91;4999596;28;45339;-59
2022/12/26 10:30:06;;;;;;;;;2.00;2.00;;;;;12.92;73.39;101217.28;5017235;28;45187;-60
2022/12/26 10:32:38;;;;;;;;;1.33;1.00;;;;;12.96;73.37;101221.47;4998939;28;45366;-58
2022/12/26 10:35:28;;;;;;;;;0.00;0.00;;;;;12.87;73.12;101195.28;4999939;28;45394;-63
2022/12/26 10:37:59;;;;;;;;;0.33;0.33;;;;;13.02;73.17;101222.94;5015897;28;45486;-58
2022/12/26 10:40:35;;;;;;;;;1.00;1.00;;;;;13.02;72.49;101220.25;5017455;28;45595;-61
2022/12/26 10:43:32;;;;;;;;;1.00;1.00;;;;;13.10;73.16;101231.38;5017079;28;45389;-58
2022/12/26 10:46:11;;;;;;;;;1.00;1.00;;;;;13.10;72.35;101226.03;5006761;28;45261;-59
2022/12/26 10:48:36;;;;;;;;;3.00;2.00;;;;;13.07;72.15;101231.56;4998783;28;45439;-59
2022/12/26 10:51:02;;;;;;;;;1.00;1.00;;;;;13.01;72.73;101219.41;5016750;28;45351;-58
2022/12/26 10:53:27;;;;;;;;;2.33;1.67;;;;;13.05;72.19;101228.13;5017020;28;45198;-59
2022/12/26 10:55:53;;;;;;;;;0.33;0.33;;;;;13.10;72.41;101228.72;5017173;28;45517;-58
2022/12/26 10:58:29;;;;;;;;;1.33;1.33;;;;;13.05;72.47;101222.78;5016556;28;46201;-58
2022/12/26 11:00:55;;;;;;;;;3.33;1.33;;;;;13.08;72.02;101219.94;5016255;28;45429;-60
2022/12/26 11:03:20;;;;;;;;;1.00;1.00;;;;;13.12;72.25;101229.47;5017228;28;45309;-58
2022/12/26 11:05:49;;;;;;;;;1.00;1.00;;;;;13.13;71.86;101228.53;5017436;28;45360;-58
2022/12/26 11:08:22;;;;;;;;;2.33;1.33;;;;;13.12;71.66;101229.47;5017127;28;46729;-59
2022/12/26 11:11:44;;;;;;;;;2.00;2.00;;;;;13.12;71.78;101246.38;5018584;28;45277;-59
2022/12/26 11:14:30;;;;;;;;;2.00;2.00;;;;;13.16;71.96;101239.06;5036855;28;45484;-58
2022/12/26 11:17:04;;;;;;;;;2.00;0.67;;;;;13.17;71.36;101233.63;5018453;28;45524;-58
2022/12/26 11:19:40;;;;;;;;;0.33;0.33;;;;;13.22;71.23;101236.06;5016468;28;46415;-58
2022/12/26 11:22:26;;;;;;;;;2.67;1.00;;;;;13.24;70.47;101234.16;5015431;28;45582;-57
2022/12/26 11:25:14;;;;;;;;;1.00;1.00;;;;;13.19;70.62;101220.22;5016664;28;45344;-59
2022/12/26 11:27:42;;;;;;;;;0.33;0.33;;;;;13.16;70.36;101212.34;5016521;28;45451;-58
2022/12/26 11:30:17;;;;;;;;;2.00;1.00;;;;;13.26;70.60;101224.25;5016392;28;46203;-57
2022/12/26 11:32:46;;;;;;;;;0.00;0.00;;;;;13.31;69.77;101232.03;5016475;28;45396;-58
2022/12/26 11:35:20;;;;;;;;;4.00;1.00;;;;;13.35;69.97;101226.41;4998477;28;45484;-58
2022/12/26 11:37:51;;;;;;;;;0.67;0.67;;;;;13.38;69.59;101231.56;5016229;28;45353;-58
2022/12/26 11:40:21;;;;;;;;;2.00;1.00;;;;;13.38;69.46;101242.25;5016927;28;46106;-59
2022/12/26 11:43:01;;;;;;;;;1.00;1.00;;;;;13.40;69.86;101244.81;5016474;28;45373;-59
2022/12/26 11:45:29;;;;;;;;;0.00;0.00;;;;;13.39;69.35;101245.78;5016481;28;45464;-59
2022/12/26 11:47:57;;;;;;;;;2.00;1.00;;;;;13.30;69.79;101239.19;5016646;28;45611;-59
2022/12/26 11:50:26;;;;;;;;;3.00;1.00;;;;;13.33;69.56;101239.00;5015489;28;45461;-59
2022/12/26 11:52:54;;;;;;;;;1.67;1.00;;;;;13.40;69.13;101248.34;4997701;28;45372;-58
2022/12/26 11:55:23;;;;;;;;;0.00;0.00;;;;;13.40;69.06;101248.34;5016407;28;45352;-58
2022/12/26 11:58:06;;;;;;;;;1.00;1.00;;;;;13.34;69.63;101255.88;5016255;28;45622;-59
2022/12/26 12:00:44;;;;;;;;;3.33;3.00;;;;;13.29;68.97;101280.19;5015005;28;45402;-59
2022/12/26 12:03:13;;;;;;;;;0.00;0.00;;;;;13.24;68.33;101287.59;5015776;28;45432;-58
2022/12/26 12:06:00;;;;;;;;;0.00;0.00;;;;;12.91;68.86;101264.47;5016248;28;45461;-59
2022/12/26 12:08:52;;;;;;;;;2.67;1.00;;;;;12.72;75.42;101292.22;5016253;28;45371;-59
2022/12/26 12:11:29;;;;;;;;;2.00;0.00;;;;;12.45;77.66;101299.88;5015787;28;46407;-62
2022/12/26 12:14:01;;;;;;;;;0.67;0.00;;;;;12.25;76.58;101290.28;5015878;28;45554;-59
2022/12/26 12:16:54;;;;;;;;;2.00;1.00;;;;;12.11;78.23;101283.00;5015634;28;45221;-59
2022/12/26 12:19:44;;;;;;;;;0.00;0.00;;;;;11.98;78.21;101303.19;5016579;28;45276;-59
2022/12/26 12:22:26;;;;;;;;;1.33;1.00;;;;;11.86;77.98;101303.84;5015671;28;46162;-59
2022/12/26 12:24:54;;;;;;;;;1.00;1.00;;;;;11.77;78.93;101294.44;5016143;28;45533;-58
2022/12/26 12:27:49;;;;;;;;;1.67;0.00;;;;;11.65;79.16;101311.91;5016464;28;45502;-59
2022/12/26 12:30:29;;;;;;;;;0.00;0.00;;;;;11.56;80.40;101311.47;4994711;28;45242;-58
2022/12/26 12:33:07;;;;;;;;;1.67;1.00;;;;;11.49;79.34;101316.25;5015245;28;46130;-59
2022/12/26 12:36:03;;;;;;;;;2.00;2.00;;;;;11.38;79.51;101327.44;5015670;28;45337;-59
2022/12/26 12:38:44;;;;;;;;;1.00;1.00;;;;;11.34;78.14;101338.31;5015962;28;45344;-59
2022/12/26 12:41:24;;;;;;;;;1.00;0.00;;;;;11.20;76.98;101336.28;4997940;28;45552;-58
2022/12/26 12:44:07;;;;;;;;;0.00;0.00;;;;;11.17;77.12;101347.06;4997878;28;47374;-58
2022/12/26 12:47:14;;;;;;;;;0.00;0.00;;;;;11.12;75.98;101333.97;5015624;28;45336;-58
2022/12/26 12:49:48;;;;;;;;;0.67;0.67;;;;;11.09;75.56;101341.25;4984705;28;45510;-58
2022/12/26 12:52:36;;;;;;;;;0.00;0.00;;;;;11.03;75.09;101330.88;5015498;28;45381;-59
2022/12/26 12:55:41;;;;;;;;;2.67;1.00;;;;;11.06;75.05;101323.59;5015044;28;45797;-58
2022/12/26 12:58:28;;;;;;;;;1.67;0.33;;;;;11.14;74.98;101337.44;5014926;28;45395;-59
2022/12/26 13:01:02;;;;;;;;;1.33;1.00;;;;;11.20;74.17;101331.84;5015860;28;45352;-59
2022/12/26 13:03:44;;;;;;;;;3.00;1.00;;;;;11.26;73.28;101332.47;5015464;28;45439;-59
2022/12/26 13:06:19;;;;;;;;;0.00;0.00;;;;;11.32;73.12;101348.13;5015091;28;45285;-59
2022/12/26 13:08:55;;;;;;;;;0.00;0.00;;;;;11.33;72.01;101336.56;5014918;28;45270;-60
2022/12/26 13:11:26;;;;;;;;;1.00;1.00;;;;;11.42;71.81;101342.31;5023218;28;45407;-60
2022/12/26 13:14:16;;;;;;;;;2.00;0.00;;;;;11.44;71.05;101336.91;5038864;28;45310;-58
2022/12/26 13:16:54;;;;;;;;;2.00;1.00;;;;;11.46;71.41;101348.38;5022030;28;45574;-59
2022/12/26 13:19:39;;;;;;;;;1.00;1.00;;;;;11.44;70.68;101350.22;5038163;28;45399;-58
2022/12/26 13:22:13;;;;;;;;;2.00;1.00;;;;;11.40;70.20;101359.31;5038190;28;45384;-59
2022/12/26 13:24:50;;;;;;;;;0.00;0.00;;;;;11.42;70.61;101357.44;5038561;28;45370;-57
2022/12/26 13:27:24;;;;;;;;;0.00;0.00;;;;;11.48;69.55;101367.81;5038053;28;46533;-59
2022/12/26 13:29:51;;;;;;;;;1.00;1.00;;;;;11.51;69.47;101367.66;5020040;28;45473;-59
2022/12/26 13:32:29;;;;;;;;;2.67;1.00;;;;;11.53;68.94;101360.44;5038194;28;45233;-59
2022/12/26 13:34:57;;;;;;;;;0.00;0.00;;;;;11.39;68.42;101353.13;5038679;28;45380;-60
2022/12/26 13:37:37;;;;;;;;;1.00;1.00;;;;;11.46;68.81;101364.38;5038275;28;45439;-60
2022/12/26 13:40:16;;;;;;;;;26.67;20.00;;;;;11.49;69.80;101364.22;5038047;28;45300;-63
2022/12/26 13:45:48;;;;;;;;;0.00;0.00;;;;;11.49;67.76;101366.88;5024058;28;45406;-58
2022/12/26 13:48:16;;;;;;;;;2.33;1.00;;;;;11.50;68.53;101376.59;5037615;28;45512;-59
2022/12/26 13:50:49;;;;;;;;;2.00;0.00;;;;;11.54;68.10;101375.50;5037920;28;45353;-58
2022/12/26 13:53:23;;;;;;;;;1.33;1.00;;;;;11.60;67.90;101388.53;5037921;28;45413;-59